Time;durP1;ratioP1;P1;durP2;ratioP2;P2;SDS_P1;SDS_P2;PMS_P1;PMS_P2;Temp;Humidity;BMP_temperature;BMP_pressure;BME280_temperature;BME280_humidity;BME280_pressure;Samples;Min_cycle;Max_cycle;Signal;HPM_P1;HPM_P2
2022/06/17 00:02:15;;;;;;;12.90;11.60;;;;;;;14.78;88.51;98112.36;107551;1277;22476;-91
2022/06/17 00:04:44;;;;;;;13.50;11.00;;;;;;;14.91;87.73;98111.76;108062;1277;22553;-90
2022/06/17 00:07:14;;;;;;;12.40;11.10;;;;;;;15.03;87.71;98110.96;107583;1265;22859;-88
2022/06/17 00:09:43;;;;;;;13.50;11.90;;;;;;;14.97;87.23;98099.64;108128;1264;22553;-87
2022/06/17 00:12:13;;;;;;;13.40;12.00;;;;;;;14.86;86.50;98098.77;108925;1274;22639;-90
2022/06/17 00:17:35;;;;;;;14.40;12.60;;;;;;;14.72;86.47;98081.88;109684;1264;22724;-85
2022/06/17 00:20:11;;;;;;;14.00;11.40;;;;;;;14.73;86.57;98083.69;109387;1264;22533;-90
2022/06/17 00:22:41;;;;;;;14.20;11.20;;;;;;;14.73;86.37;98085.64;107802;1274;23320;-91
2022/06/17 00:25:23;;;;;;;14.00;11.10;;;;;;;14.67;86.23;98080.56;107729;1274;22585;-88
2022/06/17 00:27:52;;;;;;;14.90;11.90;;;;;;;14.65;86.52;98076.31;108746;1274;22487;-90
2022/06/17 00:30:33;;;;;;;13.80;11.60;;;;;;;14.71;87.27;98075.11;107602;1274;22675;-93
2022/06/17 00:33:03;;;;;;;15.50;11.90;;;;;;;14.81;87.63;98069.61;108075;1273;25445;-91
2022/06/17 00:35:35;;;;;;;12.20;10.00;;;;;;;14.83;86.86;98073.04;107527;1274;23468;-91
2022/06/17 00:38:04;;;;;;;12.60;11.30;;;;;;;14.69;86.42;98071.67;107616;1274;22540;-91
2022/06/17 00:40:34;;;;;;;14.10;11.50;;;;;;;14.56;87.44;98073.48;106608;1275;22566;-90
2022/06/17 00:43:06;;;;;;;16.90;11.50;;;;;;;14.46;87.67;98082.94;107687;1273;22540;-86
2022/06/17 00:45:44;;;;;;;13.50;11.60;;;;;;;14.34;88.46;98085.50;108060;1274;22599;-92
2022/06/17 00:48:22;;;;;;;17.60;12.30;;;;;;;14.22;89.14;98088.93;107857;1274;22571;-90
2022/06/17 00:51:07;;;;;;;14.10;11.50;;;;;;;14.15;89.41;98087.42;106501;1274;22494;-87
2022/06/17 00:54:04;;;;;;;14.60;12.40;;;;;;;14.10;89.23;98086.42;106452;1274;24270;-94
2022/06/17 00:56:35;;;;;;;20.00;13.30;;;;;;;14.08;88.83;98084.58;105985;1274;22652;-88
2022/06/17 00:59:09;;;;;;;16.00;12.30;;;;;;;14.10;88.57;98092.40;106388;1274;24288;-89
2022/06/17 01:01:56;;;;;;;;;;;;;;;14.11;88.10;98095.71;106996;1277;23351;-91
2022/06/17 01:04:38;;;;;;;15.90;12.10;;;;;;;14.18;89.39;98098.43;105868;1277;25364;-87
2022/06/17 01:07:18;;;;;;;15.70;13.40;;;;;;;14.36;90.16;98095.38;106679;1277;25287;-83
2022/06/17 01:09:58;;;;;;;17.10;12.40;;;;;;;14.48;89.52;98099.31;107439;1274;24324;-84
2022/06/17 01:12:35;;;;;;;13.90;12.20;;;;;;;14.58;88.76;98099.46;106615;1274;22605;-88
2022/06/17 01:15:06;;;;;;;15.00;12.20;;;;;;;14.57;88.12;98103.52;106150;1277;25397;-87
2022/06/17 01:17:39;;;;;;;16.40;12.80;;;;;;;14.55;87.91;98108.16;106416;1274;22760;-87
2022/06/17 01:20:10;;;;;;;13.50;12.10;;;;;;;14.53;87.85;98111.39;106404;1274;22532;-88
2022/06/17 01:22:50;;;;;;;17.30;14.00;;;;;;;14.48;87.98;98111.26;106350;1274;22553;-88
2022/06/17 01:25:29;;;;;;;13.90;12.50;;;;;;;14.43;88.19;98112.00;106357;1274;22550;-86
2022/06/17 01:28:10;;;;;;;13.80;12.40;;;;;;;14.37;88.00;98116.17;106249;1274;22744;-86
2022/06/17 01:30:43;;;;;;;14.50;12.70;;;;;;;14.34;87.96;98113.78;106160;1277;22579;-86
2022/06/17 01:33:17;;;;;;;13.20;11.90;;;;;;;14.30;88.20;98117.19;106200;1275;25226;-86
2022/06/17 01:35:52;;;;;;;14.00;12.10;;;;;;;14.27;88.21;98117.07;106206;1274;22723;-84
2022/06/17 01:38:22;;;;;;;15.30;13.70;;;;;;;14.25;88.61;98121.10;106238;1274;22572;-85
2022/06/17 01:40:53;;;;;;;15.10;13.60;;;;;;;14.20;88.86;98116.92;105918;1274;22541;-85
2022/06/17 01:43:26;;;;;;;14.60;13.10;;;;;;;14.15;88.78;98118.92;106235;1274;22605;-86
2022/06/17 01:46:03;;;;;;;14.50;12.90;;;;;;;14.12;88.55;98128.65;106230;1274;22695;-88
2022/06/17 01:48:37;;;;;;;14.80;13.30;;;;;;;14.08;88.14;98130.49;106166;1275;25278;-85
2022/06/17 01:51:07;;;;;;;14.80;12.90;;;;;;;14.07;88.22;98137.33;106263;1274;22617;-86
2022/06/17 01:53:41;;;;;;;15.50;13.90;;;;;;;14.08;88.35;98140.55;106156;1277;25535;-84
2022/06/17 01:56:12;;;;;;;;;;;;;;;14.06;88.47;98139.91;106164;1274;25334;-87
2022/06/17 01:58:53;;;;;;;15.40;13.80;;;;;;;14.08;88.53;98148.23;105960;1277;25640;-87
2022/06/17 02:01:26;;;;;;;15.40;13.90;;;;;;;14.06;88.67;98143.70;106167;1275;22612;-84
2022/06/17 02:04:04;;;;;;;16.80;14.20;;;;;;;14.03;88.58;98144.23;106080;1275;24284;-84
2022/06/17 02:06:43;;;;;;;15.50;13.80;;;;;;;14.03;88.58;98142.80;106190;1274;22633;-86
2022/06/17 02:09:12;;;;;;;15.40;12.80;;;;;;;14.01;89.13;98145.96;106376;1274;22621;-87
2022/06/17 02:11:40;;;;;;;16.70;14.90;;;;;;;13.97;88.89;98144.41;105879;1274;22893;-87
2022/06/17 02:14:14;;;;;;;17.90;13.20;;;;;;;13.96;88.99;98141.27;106294;1274;22636;-85
2022/06/17 02:16:51;;;;;;;15.30;13.90;;;;;;;13.96;88.75;98142.21;107255;1274;24331;-87
2022/06/17 02:19:42;;;;;;;16.90;15.20;;;;;;;13.90;88.42;98152.24;107999;1274;23935;-87
2022/06/17 02:22:20;;;;;;;17.10;14.70;;;;;;;13.84;88.93;98150.50;106405;1277;22486;-86
2022/06/17 02:24:50;;;;;;;18.30;16.20;;;;;;;13.85;88.89;98150.11;106120;1277;24205;-87
2022/06/17 02:27:20;;;;;;;17.00;15.30;;;;;;;13.85;88.88;98154.93;106218;1274;25586;-85
2022/06/17 02:29:50;;;;;;;16.20;14.70;;;;;;;13.82;88.97;98156.70;106254;1274;24419;-85
2022/06/17 02:32:19;;;;;;;15.70;13.60;;;;;;;13.78;88.58;98160.95;106264;1274;22586;-85
2022/06/17 02:34:50;;;;;;;18.10;16.20;;;;;;;13.75;89.08;98163.48;106212;1277;25192;-84
2022/06/17 02:37:19;;;;;;;17.00;15.40;;;;;;;13.74;89.94;98161.90;106153;1276;22618;-87
2022/06/17 02:39:50;;;;;;;18.90;16.80;;;;;;;13.69;89.79;98160.09;106117;1277;22557;-85
2022/06/17 02:42:35;;;;;;;18.00;16.30;;;;;;;13.65;89.81;98166.41;106319;1274;22549;-86
2022/06/17 02:45:25;;;;;;;22.00;19.40;;;;;;;13.61;90.01;98161.85;106069;1274;24283;-87
2022/06/17 02:47:53;;;;;;;17.80;15.90;;;;;;;13.63;89.63;98165.88;106178;1275;24087;-87
2022/06/17 02:50:28;;;;;;;22.80;18.50;;;;;;;13.60;89.40;98172.23;106258;1274;25384;-88
2022/06/17 02:52:59;;;;;;;18.30;16.50;;;;;;;13.61;89.89;98174.80;106203;1274;22561;-87
2022/06/17 02:55:35;;;;;;;21.90;19.60;;;;;;;13.62;90.08;98177.85;106311;1274;22543;-86
2022/06/17 02:58:31;;;;;;;24.70;22.30;;;;;;;13.63;90.33;98180.20;106202;1274;23202;-87
2022/06/17 03:00:59;;;;;;;24.90;22.50;;;;;;;13.65;91.52;98183.30;106197;1274;22622;-87
2022/06/17 03:03:28;;;;;;;25.50;22.80;;;;;;;13.66;91.75;98184.35;106182;1275;22578;-87
2022/06/17 03:05:58;;;;;;;27.50;24.60;;;;;;;13.69;92.85;98185.17;106213;1274;22557;-88
2022/06/17 03:08:32;;;;;;;40.80;27.40;;;;;;;13.69;92.63;98188.90;106198;1278;22613;-89
2022/06/17 03:11:01;;;;;;;42.70;21.60;;;;;;;13.69;92.23;98191.45;106257;1277;24398;-91
2022/06/17 03:13:29;;;;;;;30.10;22.60;;;;;;;13.70;93.35;98192.18;106420;1274;25341;-88
2022/06/17 03:16:03;;;;;;;31.70;25.20;;;;;;;13.71;93.02;98193.63;106156;1274;22563;-86
2022/06/17 03:18:32;;;;;;;32.90;23.00;;;;;;;13.72;93.04;98197.00;106246;1274;22513;-86
2022/06/17 03:21:02;;;;;;;39.10;25.90;;;;;;;13.73;93.39;98196.46;106167;1277;22540;-88
2022/06/17 03:24:04;;;;;;;31.90;26.30;;;;;;;13.75;93.81;98202.88;106232;1275;22567;-88
2022/06/17 03:26:44;;;;;;;35.10;29.00;;;;;;;13.77;93.92;98206.23;106216;1274;22769;-89
2022/06/17 03:29:14;;;;;;;48.30;27.00;;;;;;;13.76;93.29;98206.80;106244;1274;22610;-87
2022/06/17 03:31:52;;;;;;;39.60;26.90;;;;;;;13.76;93.49;98207.28;106080;1277;22557;-87
2022/06/17 03:34:27;;;;;;;41.40;30.50;;;;;;;13.77;93.11;98201.08;105960;1278;23453;-90
2022/06/17 03:37:02;;;;;;;54.10;24.60;;;;;;;13.80;92.82;98205.70;106263;1274;22588;-89
2022/06/17 03:39:38;;;;;;;56.60;26.10;;;;;;;13.85;94.14;98209.64;106256;1274;22737;-89
2022/06/17 03:42:11;;;;;;;25.80;22.90;;;;;;;13.84;94.14;98203.55;106233;1274;22918;-88
2022/06/17 03:44:48;;;;;;;36.60;26.50;;;;;;;13.85;95.74;98212.89;106044;1277;25442;-86
2022/06/17 03:47:54;;;;;;;28.70;25.10;;;;;;;13.80;94.80;98209.88;106084;1274;22619;-88
2022/06/17 03:50:29;;;;;;;27.80;25.10;;;;;;;13.79;94.93;98223.98;106181;1274;22586;-86
2022/06/17 03:53:03;;;;;;;25.80;23.50;;;;;;;13.78;95.67;98229.36;106281;1274;22558;-88
2022/06/17 03:55:32;;;;;;;25.10;23.00;;;;;;;13.76;96.36;98234.30;106096;1275;22667;-87
2022/06/17 03:58:01;;;;;;;28.00;25.60;;;;;;;13.75;96.41;98237.16;106051;1277;24070;-88
2022/06/17 04:00:44;;;;;;;21.70;19.70;;;;;;;13.74;95.59;98240.91;106221;1274;22575;-88
2022/06/17 04:03:25;;;;;;;23.30;21.10;;;;;;;13.76;95.35;98235.56;106057;1275;22566;-88
2022/06/17 04:06:00;;;;;;;19.30;17.60;;;;;;;13.80;95.13;98236.90;106105;1274;22697;-87
2022/06/17 04:08:31;;;;;;;17.40;15.70;;;;;;;13.85;94.67;98242.41;106169;1274;22553;-88
2022/06/17 04:11:00;;;;;;;15.30;13.90;;;;;;;13.87;94.57;98237.38;106204;1274;22615;-87
2022/06/17 04:13:32;;;;;;;14.90;13.20;;;;;;;13.89;94.73;98235.77;106228;1274;22620;-87
2022/06/17 04:16:23;;;;;;;16.40;13.60;;;;;;;13.91;94.59;98236.36;106164;1272;25401;-89
2022/06/17 04:18:51;;;;;;;15.90;14.40;;;;;;;13.93;94.46;98242.53;106056;1277;26611;-87
2022/06/17 04:21:19;;;;;;;16.80;14.50;;;;;;;13.95;94.11;98247.37;106101;1274;22557;-90
2022/06/17 04:23:47;;;;;;;16.70;15.00;;;;;;;13.98;94.28;98251.00;106195;1274;22758;-88
2022/06/17 04:26:37;;;;;;;15.90;14.20;;;;;;;13.99;94.02;98243.77;106286;1274;25378;-88
2022/06/17 04:29:19;;;;;;;17.70;14.50;;;;;;;14.00;94.08;98246.30;106303;1277;22545;-89
2022/06/17 04:32:02;;;;;;;15.40;12.50;;;;;;;14.02;94.42;98252.96;106244;1274;22613;-88
2022/06/17 04:34:31;;;;;;;14.50;13.10;;;;;;;14.00;94.69;98260.92;106160;1277;22745;-88
2022/06/17 04:37:04;;;;;;;15.80;13.70;;;;;;;14.00;95.14;98262.23;106369;1274;22497;-88
2022/06/17 04:39:58;;;;;;;13.20;11.80;;;;;;;14.05;94.96;98254.73;108145;1274;22477;-88
2022/06/17 04:43:32;;;;;;;14.00;12.50;;;;;;;14.13;95.15;98257.92;107387;1274;25309;-91
2022/06/17 04:46:10;;;;;;;13.80;12.50;;;;;;;14.22;95.06;98258.56;106634;1275;24227;-92
2022/06/17 04:48:41;;;;;;;14.10;11.30;;;;;;;14.29;94.85;98260.56;106618;1274;22550;-91
2022/06/17 04:51:10;;;;;;;12.20;10.90;;;;;;;14.39;94.78;98265.82;106365;1274;22526;-87
2022/06/17 04:53:44;;;;;;;12.90;10.60;;;;;;;14.48;94.64;98266.16;106294;1274;22821;-88
2022/06/17 04:56:30;;;;;;;13.60;11.40;;;;;;;14.57;94.51;98264.98;106277;1274;22620;-86
2022/06/17 04:59:22;;;;;;;12.90;11.60;;;;;;;14.67;94.38;98269.34;106267;1274;22563;-88
2022/06/17 05:01:52;;;;;;;14.00;10.30;;;;;;;14.75;94.07;98272.84;106065;1274;22595;-87
2022/06/17 05:04:41;;;;;;;12.10;10.50;;;;;;;14.85;93.94;98276.98;106253;1274;25490;-89
2022/06/17 05:07:10;;;;;;;13.10;10.80;;;;;;;14.92;93.59;98278.48;106329;1274;24375;-88
2022/06/17 05:09:45;;;;;;;12.70;11.40;;;;;;;14.94;92.87;98283.13;106172;1274;25394;-84
2022/06/17 05:12:45;;;;;;;14.30;11.60;;;;;;;14.96;92.72;98286.80;106247;1274;22606;-88
2022/06/17 05:15:18;;;;;;;14.20;11.40;;;;;;;14.97;92.23;98292.75;105987;1276;24176;-87
2022/06/17 05:17:48;;;;;;;13.60;11.00;;;;;;;15.01;92.28;98296.01;106169;1274;25075;-89
2022/06/17 05:20:19;;;;;;;13.50;11.80;;;;;;;15.03;91.84;98296.58;106325;1274;22652;-88
2022/06/17 05:22:52;;;;;;;15.50;13.80;;;;;;;14.97;91.45;98299.89;106116;1277;22559;-86
2022/06/17 05:25:29;;;;;;;15.60;13.70;;;;;;;14.96;91.58;98297.50;106267;1274;22566;-88
2022/06/17 05:27:59;;;;;;;16.60;13.50;;;;;;;14.97;91.47;98302.36;106082;1277;22590;-85
2022/06/17 05:30:35;;;;;;;15.10;12.90;;;;;;;15.00;91.62;98297.12;106273;1274;22560;-86
2022/06/17 05:33:06;;;;;;;13.10;11.50;;;;;;;15.08;91.60;98303.86;106270;1272;22537;-85
2022/06/17 05:35:35;;;;;;;24.60;12.70;;;;;;;15.10;91.06;98304.73;106128;1274;25471;-86
2022/06/17 05:38:03;;;;;;;18.70;14.60;;;;;;;15.12;91.00;98297.30;106022;1274;22550;-86
2022/06/17 05:40:33;;;;;;;18.70;14.20;;;;;;;15.15;90.89;98302.34;106046;1274;22589;-88
2022/06/17 05:43:04;;;;;;;15.60;12.90;;;;;;;15.20;90.83;98303.33;106070;1274;22879;-88
2022/06/17 05:45:34;;;;;;;12.50;11.10;;;;;;;15.25;90.88;98305.56;106178;1274;22576;-86
2022/06/17 05:48:24;;;;;;;14.50;11.40;;;;;;;15.31;90.55;98311.31;106231;1274;25289;-86
2022/06/17 05:51:05;;;;;;;14.10;12.40;;;;;;;15.27;90.54;98315.40;106199;1274;22635;-86
2022/06/17 05:53:48;;;;;;;15.00;12.40;;;;;;;15.25;90.48;98320.52;106210;1274;22597;-88
2022/06/17 05:56:42;;;;;;;13.00;11.70;;;;;;;15.27;90.23;98321.82;105893;1277;22572;-89
2022/06/17 05:59:11;;;;;;;13.50;12.20;;;;;;;15.25;89.82;98327.56;106241;1274;22568;-89
2022/06/17 06:01:39;;;;;;;15.60;12.00;;;;;;;15.20;89.90;98333.13;106305;1274;22559;-88
2022/06/17 06:04:08;;;;;;;16.80;15.10;;;;;;;15.24;89.94;98337.92;106322;1274;22642;-90
2022/06/17 06:06:36;;;;;;;17.30;15.50;;;;;;;15.21;89.65;98340.66;106253;1274;22582;-88
2022/06/17 06:09:06;;;;;;;20.60;18.60;;;;;;;15.17;89.55;98343.53;106430;1274;22541;-89
2022/06/17 06:11:35;;;;;;;19.80;18.00;;;;;;;15.16;89.53;98341.61;106338;1274;22609;-89
2022/06/17 06:14:03;;;;;;;19.60;17.60;;;;;;;15.18;89.40;98350.68;106117;1274;22685;-89
2022/06/17 06:16:31;;;;;;;19.40;17.40;;;;;;;15.17;89.35;98354.52;106186;1274;25353;-88
2022/06/17 06:19:02;;;;;;;21.10;17.80;;;;;;;15.18;89.47;98358.33;106164;1276;22750;-88
2022/06/17 06:21:32;;;;;;;20.40;18.30;;;;;;;15.21;89.34;98359.70;106283;1274;22563;-86
2022/06/17 06:24:00;;;;;;;21.90;20.00;;;;;;;15.25;89.43;98359.39;106219;1274;22554;-87
2022/06/17 06:26:31;;;;;;;20.80;18.70;;;;;;;15.28;88.80;98358.45;106140;1274;25255;-88
2022/06/17 06:29:22;;;;;;;15.50;14.00;;;;;;;15.27;88.75;98364.42;106175;1274;24202;-89
2022/06/17 06:31:50;;;;;;;15.30;13.80;;;;;;;15.27;88.61;98366.39;106177;1274;25579;-87
2022/06/17 06:34:23;;;;;;;16.30;14.70;;;;;;;15.23;88.67;98366.66;106070;1275;22698;-87
2022/06/17 06:36:51;;;;;;;17.10;15.20;;;;;;;15.21;88.43;98369.45;106100;1274;22751;-88
2022/06/17 06:39:19;;;;;;;21.70;15.60;;;;;;;15.18;88.91;98364.13;106261;1274;22627;-86
2022/06/17 06:41:49;;;;;;;16.30;14.80;;;;;;;15.28;88.91;98368.04;106247;1274;22605;-86
2022/06/17 06:44:20;;;;;;;20.40;17.30;;;;;;;15.30;88.54;98365.14;106249;1274;25326;-87
2022/06/17 06:46:57;;;;;;;20.10;18.20;;;;;;;15.31;88.15;98368.65;106218;1274;23006;-86
2022/06/17 06:49:31;;;;;;;;;;;;;;;15.28;88.41;98371.55;106199;1274;22535;-87
2022/06/17 06:51:59;;;;;;;19.60;17.60;;;;;;;15.24;88.06;98370.37;105995;1277;22617;-87
2022/06/17 06:54:27;;;;;;;19.00;17.30;;;;;;;15.21;88.24;98372.15;106168;1274;22685;-88
2022/06/17 06:56:59;;;;;;;18.60;16.90;;;;;;;15.14;87.95;98373.10;106136;1274;22714;-87
2022/06/17 06:59:48;;;;;;;18.90;17.20;;;;;;;15.08;88.29;98375.52;107496;1274;22661;-87
2022/06/17 07:02:15;;;;;;;19.30;17.40;;;;;;;15.10;88.15;98380.48;107173;1274;22558;-88
2022/06/17 07:04:46;;;;;;;17.00;15.30;;;;;;;15.10;88.13;98376.16;106463;1274;22675;-86
2022/06/17 07:07:15;;;;;;;16.70;15.00;;;;;;;15.10;87.96;98375.96;106197;1273;25223;-85
2022/06/17 07:09:43;;;;;;;19.20;15.40;;;;;;;15.15;88.12;98378.56;106256;1274;22912;-86
2022/06/17 07:12:11;;;;;;;19.20;14.90;;;;;;;15.17;87.80;98375.53;106262;1274;22568;-88
2022/06/17 07:14:39;;;;;;;18.50;16.70;;;;;;;15.15;87.90;98378.63;106228;1274;25356;-87
2022/06/17 07:17:08;;;;;;;19.00;17.30;;;;;;;15.11;87.60;98385.42;106239;1274;26615;-88
2022/06/17 07:19:36;;;;;;;19.30;17.50;;;;;;;15.01;87.60;98383.00;106257;1274;25446;-89
2022/06/17 07:22:04;;;;;;;18.70;16.90;;;;;;;14.94;87.94;98385.89;106201;1273;25636;-91
2022/06/17 07:24:32;;;;;;;18.80;17.20;;;;;;;14.93;88.01;98387.61;106192;1274;22566;-89
2022/06/17 07:27:00;;;;;;;23.40;21.20;;;;;;;14.93;87.96;98389.40;106227;1274;22556;-88
2022/06/17 07:29:28;;;;;;;24.20;22.00;;;;;;;14.87;87.87;98392.73;106208;1274;25333;-87
2022/06/17 07:31:56;;;;;;;27.30;25.00;;;;;;;14.81;88.04;98393.38;106555;1274;22612;-88
2022/06/17 07:34:24;;;;;;;25.60;23.20;;;;;;;14.76;87.85;98384.79;106489;1274;22524;-88
2022/06/17 07:39:54;;;;;;;28.20;25.50;;;;;;;14.75;88.23;98389.00;106234;1274;22609;-86
2022/06/17 07:42:24;;;;;;;31.00;27.90;;;;;;;14.76;88.32;98390.87;106199;1274;23147;-84
2022/06/17 07:44:53;;;;;;;31.60;28.80;;;;;;;14.75;88.12;98393.55;106361;1274;24205;-87
2022/06/17 07:47:22;;;;;;;34.10;30.80;;;;;;;14.70;88.36;98397.69;106296;1274;22693;-87
2022/06/17 07:49:51;;;;;;;31.20;28.00;;;;;;;14.66;88.08;98397.00;106434;1274;22565;-86
2022/06/17 07:52:18;;;;;;;33.00;29.70;;;;;;;14.63;88.57;98395.40;106191;1274;22622;-88
2022/06/17 07:54:46;;;;;;;31.80;28.90;;;;;;;14.64;88.63;98398.77;106246;1274;22578;-88
2022/06/17 07:57:16;;;;;;;29.80;26.50;;;;;;;14.70;88.57;98400.08;106129;1277;22611;-87
2022/06/17 07:59:44;;;;;;;34.80;31.10;;;;;;;14.77;88.52;98405.48;106216;1274;22619;-87
2022/06/17 08:02:12;;;;;;;35.50;32.00;;;;;;;14.79;88.50;98409.08;106152;1274;23222;-89
2022/06/17 08:04:41;;;;;;;34.70;31.30;;;;;;;14.77;88.37;98413.02;106050;1274;22554;-88
2022/06/17 08:07:11;;;;;;;29.20;26.40;;;;;;;14.76;88.55;98415.48;106260;1274;24409;-86
2022/06/17 08:09:40;;;;;;;33.70;30.30;;;;;;;14.81;88.54;98418.34;106881;1274;22823;-87
2022/06/17 08:12:11;;;;;;;29.80;27.00;;;;;;;14.81;88.44;98418.48;106979;1274;22743;-91
2022/06/17 08:14:46;;;;;;;29.90;27.00;;;;;;;14.76;88.69;98416.57;106291;1274;22735;-89
2022/06/17 08:17:16;;;;;;;33.20;29.60;;;;;;;14.79;88.73;98412.34;106284;1274;22599;-87
2022/06/17 08:19:44;;;;;;;35.20;30.40;;;;;;;14.82;88.86;98416.58;106238;1274;24225;-88
2022/06/17 08:22:12;;;;;;;35.00;29.50;;;;;;;14.89;88.43;98417.41;106164;1274;22687;-90
2022/06/17 08:24:41;;;;;;;33.20;30.10;;;;;;;14.91;88.35;98421.77;106228;1274;22626;-90
2022/06/17 08:27:15;;;;;;;;;;;;;;;14.96;88.35;98425.20;106255;1274;22522;-87
2022/06/17 08:29:43;;;;;;;33.30;30.30;;;;;;;14.95;88.14;98424.85;106218;1274;22631;-88
2022/06/17 08:35:04;;;;;;;33.40;30.10;;;;;;;15.03;88.07;98429.78;106261;1273;25481;-85
2022/06/17 08:37:33;;;;;;;28.30;25.30;;;;;;;15.13;88.38;98438.65;106138;1274;24382;-86
2022/06/17 08:40:28;;;;;;;26.20;23.80;;;;;;;15.23;88.11;98438.55;106194;1274;25582;-89
2022/06/17 08:43:21;;;;;;;30.60;25.40;;;;;;;15.40;88.03;98443.15;106402;1274;25306;-89
2022/06/17 08:45:55;;;;;;;26.70;24.00;;;;;;;15.60;87.63;98440.11;106316;1274;25350;-86
2022/06/17 08:48:41;;;;;;;27.40;24.00;;;;;;;15.79;87.16;98443.80;106418;1274;22724;-89
2022/06/17 08:51:27;;;;;;;36.60;26.60;;;;;;;16.04;86.79;98446.71;106371;1274;22592;-88
2022/06/17 08:54:33;;;;;;;27.50;24.60;;;;;;;16.31;84.82;98445.70;106443;1274;22563;-90
2022/06/17 08:57:03;;;;;;;;;;;;;;;16.57;85.25;98447.60;107464;1274;22563;-92
2022/06/17 08:59:38;;;;;;;26.90;24.20;;;;;;;16.81;85.50;98444.41;106729;1274;24202;-90
2022/06/17 09:02:21;;;;;;;29.00;23.90;;;;;;;17.02;84.89;98447.59;106425;1274;22537;-89
2022/06/17 09:05:29;;;;;;;23.80;21.60;;;;;;;17.40;83.14;98450.62;106206;1274;23257;-91
2022/06/17 09:08:14;;;;;;;22.80;20.60;;;;;;;17.47;82.32;98454.41;106322;1274;22595;-90
2022/06/17 09:11:01;;;;;;;22.70;20.00;;;;;;;17.49;82.39;98457.77;106198;1274;24495;-90
2022/06/17 09:13:48;;;;;;;22.60;19.80;;;;;;;17.57;80.62;98460.23;106223;1277;22632;-87
2022/06/17 09:16:53;;;;;;;22.30;18.30;;;;;;;17.73;79.11;98462.16;106326;1274;24871;-86
2022/06/17 09:19:29;;;;;;;20.60;18.60;;;;;;;17.96;80.40;98461.42;107609;1274;22569;-86
2022/06/17 09:22:23;;;;;;;19.90;17.80;;;;;;;18.16;78.08;98464.86;108030;1277;22952;-85
2022/06/17 09:24:54;;;;;;;19.60;17.20;;;;;;;18.27;78.67;98465.89;106347;1274;22738;-87
2022/06/17 09:27:30;;;;;;;22.50;20.20;;;;;;;18.35;77.21;98469.54;106276;1274;22550;-91
2022/06/17 09:30:02;;;;;;;20.20;18.10;;;;;;;18.25;76.26;98475.30;106232;1274;22576;-86
2022/06/17 09:32:47;;;;;;;21.40;19.20;;;;;;;18.18;76.62;98475.08;106243;1274;22668;-87
2022/06/17 09:35:35;;;;;;;22.80;20.50;;;;;;;18.08;75.48;98475.96;106200;1277;22557;-87
2022/06/17 09:38:17;;;;;;;27.90;23.00;;;;;;;18.06;75.59;98470.48;106175;1274;24417;-85
2022/06/17 09:40:53;;;;;;;20.20;18.00;;;;;;;18.20;75.26;98466.98;106176;1273;25405;-86
2022/06/17 09:43:46;;;;;;;20.40;18.20;;;;;;;18.43;75.58;98465.73;106160;1274;25302;-89
2022/06/17 09:46:52;;;;;;;18.90;17.10;;;;;;;18.81;73.97;98468.23;106163;1274;25187;-86
2022/06/17 09:49:37;;;;;;;20.00;17.00;;;;;;;18.97;71.88;98474.25;106144;1274;23540;-85
2022/06/17 09:52:13;;;;;;;22.10;17.80;;;;;;;18.83;71.30;98471.48;106326;1274;25277;-88
2022/06/17 09:54:59;;;;;;;24.10;17.80;;;;;;;18.83;71.94;98471.98;106248;1276;24531;-85
2022/06/17 09:57:39;;;;;;;20.20;18.10;;;;;;;18.73;72.51;98467.35;106237;1274;25356;-84
2022/06/17 10:00:12;;;;;;;20.60;17.40;;;;;;;18.68;72.47;98464.29;106231;1274;24194;-85
2022/06/17 10:02:59;;;;;;;16.40;12.70;;;;;;;18.59;71.52;98465.60;106255;1274;25218;-84
2022/06/17 10:05:52;;;;;;;16.50;13.30;;;;;;;18.52;72.40;98470.48;106262;1274;22556;-85
2022/06/17 10:08:39;;;;;;;17.70;12.50;;;;;;;18.47;69.62;98473.23;106186;1274;25280;-87
2022/06/17 10:11:09;;;;;;;19.40;11.20;;;;;;;18.65;70.28;98472.45;106187;1274;24230;-86
2022/06/17 10:13:50;;;;;;;15.20;10.60;;;;;;;19.00;68.11;98472.52;106284;1274;22606;-88
2022/06/17 10:19:31;;;;;;;11.80;8.70;;;;;;;19.16;66.64;98473.14;106224;1274;25483;-87
2022/06/17 10:22:23;;;;;;;14.90;8.90;;;;;;;19.00;65.67;98487.45;106071;1274;204341;-87
2022/06/17 10:25:19;;;;;;;11.40;7.60;;;;;;;18.76;66.42;98480.78;106265;1274;22556;-86
2022/06/17 10:27:56;;;;;;;11.70;7.40;;;;;;;18.56;65.96;98478.70;106343;1274;22573;-90
2022/06/17 10:30:27;;;;;;;12.50;7.90;;;;;;;18.50;64.12;98481.98;106358;1274;22612;-88
2022/06/17 10:32:55;;;;;;;13.00;8.30;;;;;;;18.62;64.73;98476.62;106370;1273;22562;-89
2022/06/17 10:35:29;;;;;;;10.90;6.90;;;;;;;18.90;65.50;98483.37;106318;1274;22548;-90
2022/06/17 10:38:00;;;;;;;14.90;9.50;;;;;;;19.04;64.25;98477.90;106134;1274;24211;-85
2022/06/17 10:40:32;;;;;;;11.60;7.70;;;;;;;19.12;64.91;98473.88;106071;1274;22567;-88
2022/06/17 10:43:05;;;;;;;13.00;7.50;;;;;;;19.20;63.80;98477.15;106067;1274;22667;-89
2022/06/17 10:45:34;;;;;;;9.70;6.70;;;;;;;19.35;62.84;98473.79;106306;1274;22550;-88
2022/06/17 10:48:13;;;;;;;10.30;6.50;;;;;;;19.53;61.18;98473.05;106192;1274;22643;-87
2022/06/17 10:50:41;;;;;;;16.80;11.40;;;;;;;19.52;60.07;98476.54;106270;1274;23987;-87
2022/06/17 10:53:21;;;;;;;9.50;5.50;;;;;;;19.34;59.54;98484.86;106239;1274;22551;-86
2022/06/17 10:55:53;;;;;;;8.70;5.20;;;;;;;19.02;60.03;98480.88;106238;1274;22577;-83
2022/06/17 10:58:25;;;;;;;7.80;5.30;;;;;;;18.94;62.08;98476.23;106408;1274;24505;-88
2022/06/17 11:01:03;;;;;;;10.00;5.30;;;;;;;19.27;60.54;98468.64;106265;1274;22551;-87
2022/06/17 11:03:32;;;;;;;6.30;4.30;;;;;;;19.54;60.84;98467.92;106404;1274;22633;-90
2022/06/17 11:06:22;;;;;;;9.40;4.80;;;;;;;19.67;57.27;98470.36;106647;1274;22594;-91
2022/06/17 11:09:03;;;;;;;6.20;4.00;;;;;;;19.92;56.75;98465.39;106801;1274;22551;-92
2022/06/17 11:12:05;;;;;;;5.90;3.80;;;;;;;20.30;57.97;98454.91;106984;1274;23316;-89
2022/06/17 11:14:39;;;;;;;5.40;3.20;;;;;;;20.61;54.24;98456.48;106560;1274;22701;-88
2022/06/17 11:17:16;;;;;;;6.00;3.20;;;;;;;20.66;54.67;98455.89;106311;1274;22541;-87
2022/06/17 11:19:50;;;;;;;4.90;3.30;;;;;;;20.70;55.06;98456.84;106235;1274;22550;-86
2022/06/17 11:22:25;;;;;;;7.30;3.50;;;;;;;20.77;52.41;98453.95;106480;1274;22556;-86
2022/06/17 11:24:57;;;;;;;11.30;3.10;;;;;;;20.78;53.49;98453.77;106244;1274;24416;-85
2022/06/17 11:27:43;;;;;;;6.90;3.40;;;;;;;21.02;53.48;98447.39;106885;1274;23005;-93
2022/06/17 11:30:25;;;;;;;6.10;4.20;;;;;;;20.99;52.25;98451.77;106372;1275;22554;-88
2022/06/17 11:32:54;;;;;;;8.10;3.00;;;;;;;20.68;51.56;98457.58;106665;1274;22564;-85
2022/06/17 11:35:39;;;;;;;5.40;2.90;;;;;;;20.60;52.01;98459.64;106700;1274;26507;-84
2022/06/17 11:38:15;;;;;;;4.30;3.10;;;;;;;20.74;50.44;98462.98;106365;1277;23934;-85
2022/06/17 11:41:05;;;;;;;5.60;3.50;;;;;;;20.80;51.43;98463.13;107005;1274;22524;-85
2022/06/17 11:43:42;;;;;;;5.80;3.00;;;;;;;21.06;51.08;98465.66;108946;1274;25841;-83
2022/06/17 11:46:21;;;;;;;5.70;3.40;;;;;;;21.38;51.14;98461.58;106953;1274;22656;-89
2022/06/17 11:48:54;;;;;;;5.10;3.00;;;;;;;21.53;50.78;98471.96;106789;1274;24359;-92
2022/06/17 11:51:37;;;;;;;6.10;2.90;;;;;;;21.69;49.73;98479.30;106502;1274;22679;-87
2022/06/17 11:54:18;;;;;;;4.70;2.40;;;;;;;21.73;48.79;98474.44;106593;1274;22856;-87
2022/06/17 11:56:47;;;;;;;5.50;2.80;;;;;;;21.87;48.32;98470.58;106489;1274;22654;-86
2022/06/17 11:59:25;;;;;;;4.20;2.30;;;;;;;21.99;47.68;98468.46;106304;1275;22542;-85
2022/06/17 12:01:53;;;;;;;5.80;2.60;;;;;;;21.86;47.89;98475.11;106424;1274;24412;-85
2022/06/17 12:04:56;;;;;;;4.90;2.30;;;;;;;21.61;47.52;98481.38;106624;1274;22683;-87